M/V Koray — 9HA3270 — position and weather

sailwx.info

Track history (hours):
 
Tides and Currents Weather Stations Pressure Air Temp Water Temp Dewpoint Dewpoint Depression Visibility Wind Speed Wind Dir Waves Ship Positions

M/V Koray

Last reported at 2017-Sep-19 16:48 UTC. Time now 2017-Sep-26 18:33 UTC.
Position N 37°31' E 025°43'.

Length 89 m; draft 6.3 m.

Type: Ship. MMSI: 229363000.

Date/timePositionNaut miles runAvg speedWind from/ knotsBaromVisibWave heightAir tempDewpointWater temp
2017-Sep-19 16:48N 37°31' E 025°43'2 8.2
2017-Sep-19 16:30N 37°29' E 025°41'4 8.4
2017-Sep-19 16:00N 37°25' E 025°39'4 8.0
2017-Sep-19 15:29N 37°22' E 025°36'3 7.2
2017-Sep-19 15:00N 37°20' E 025°32'4 8.3
2017-Sep-19 14:30N 37°20' E 025°27'4 8.5
2017-Sep-19 14:00N 37°19' E 025°22'4 8.7
2017-Sep-19 13:30N 37°18' E 025°16'4 8.9
2017-Sep-19 13:00N 37°17' E 025°11'4 8.8
2017-Sep-19 12:30N 37°16' E 025°06'4 8.5
2017-Sep-19 12:00N 37°15' E 025°00'4 8.3
2017-Sep-19 11:30N 37°14' E 024°55'4 8.1
2017-Sep-19 11:00N 37°12' E 024°51'26 8.2
2017-Sep-19 07:52N 36°58' E 024°23'3 8.3
2017-Sep-19 07:30N 36°57' E 024°20'5 8.2
2017-Sep-19 06:55N 36°54' E 024°15'3 7.9
2017-Sep-19 06:30N 36°53' E 024°11'4 7.9
2017-Sep-19 05:59N 36°50' E 024°07'4 8.1
2017-Sep-19 05:30N 36°48' E 024°03'4 8.5
2017-Sep-19 05:00N 36°46' E 023°58'4 8.5
2017-Sep-19 04:28N 36°44' E 023°54'4 8.7
2017-Sep-19 04:00N 36°41' E 023°50'17 8.6
2017-Sep-19 02:05N 36°33' E 023°32'98 8.5
2017-Sep-18 14:35N 36°34' E 021°30'1 9.5
2017-Sep-18 14:30N 36°34' E 021°29'181 9.0
2017-Sep-17 18:21N 37°27' E 017°52'5 8.6
2017-Sep-17 17:50N 37°28' E 017°46'3 8.7
2017-Sep-17 17:30N 37°29' E 017°43'15 8.7
2017-Sep-17 15:48N 37°33' E 017°25'3 8.6
2017-Sep-17 15:30N 37°34' E 017°22'4 8.6
2017-Sep-17 15:00N 37°35' E 017°17'25 8.7
2017-Sep-17 12:11N 37°42' E 016°47'2 8.9
2017-Sep-17 12:00N 37°43' E 016°45'5 9.0
2017-Sep-17 11:30N 37°44' E 016°40'32 9.0
2017-Sep-17 07:54N 37°52' E 016°00'4 8.5
2017-Sep-17 07:29N 37°52' E 015°56'4 7.9
2017-Sep-17 07:00N 37°52' E 015°51'3 5.4
2017-Sep-17 06:30N 37°50' E 015°53'2 3.9
2017-Sep-17 06:00N 37°49' E 015°52'5 9.1
2017-Sep-17 05:30N 37°50' E 015°47'5 9.5
2017-Sep-17 04:58N 37°51' E 015°40'5 9.9
2017-Sep-17 04:30N 37°55' E 015°37'5 9.5
2017-Sep-17 04:00N 37°59' E 015°34'5 9.2
2017-Sep-17 03:30N 38°04' E 015°34'5 9.1
2017-Sep-17 03:00N 38°08' E 015°35'4 7.9
2017-Sep-17 02:30N 38°12' E 015°36'4 7.2
2017-Sep-17 02:00N 38°15' E 015°38'4 7.4
2017-Sep-17 01:30N 38°18' E 015°40'5 9.0
2017-Sep-17 01:00N 38°22' E 015°37'4 9.1
2017-Sep-17 00:30N 38°25' E 015°33'5 9.4
2017-Sep-17 00:00N 38°29' E 015°29'5 9.6
2017-Sep-16 23:29N 38°33' E 015°25'5 9.8
2017-Sep-16 23:00N 38°37' E 015°21'5 9.6
2017-Sep-16 22:30N 38°40' E 015°18'5 9.1
2017-Sep-16 22:00N 38°42' E 015°12'4 9.1
2017-Sep-16 21:30N 38°43' E 015°07'5 9.1
2017-Sep-16 21:00N 38°45' E 015°01'5 8.9
2017-Sep-16 20:28N 38°46' E 014°55'4 8.7
2017-Sep-16 20:00N 38°47' E 014°50'5 8.8
2017-Sep-16 19:27N 38°50' E 014°45'4 8.9
2017-Sep-16 19:00N 38°53' E 014°41'6 8.9
2017-Sep-16 18:18N 38°57' E 014°36'3 9.0
2017-Sep-16 18:00N 38°59' E 014°33'36 9.2
2017-Sep-16 14:06N 39°24' E 013°59'2 9.2
2017-Sep-16 13:49N 39°25' E 013°57'4 9.1
2017-Sep-16 13:23N 39°28' E 013°53'3 9.1
2017-Sep-16 13:00N 39°30' E 013°50'89 9.4
2017-Sep-16 03:31N 40°32' E 012°25'1 9.5
2017-Sep-16 03:28N 40°32' E 012°25'199 9.3
2017-Sep-15 05:59N 43°05' E 009°34'3 7.1
2017-Sep-15 05:30N 43°08' E 009°33'4 7.4
2017-Sep-15 05:00N 43°12' E 009°31'4 7.4
2017-Sep-15 04:30N 43°15' E 009°30'4 7.2
2017-Sep-15 04:00N 43°19' E 009°28'4 7.2
2017-Sep-15 03:30N 43°22' E 009°25'4 7.6
2017-Sep-15 03:00N 43°24' E 009°21'4 7.1
2017-Sep-15 02:30N 43°27' E 009°18'3 6.6
2017-Sep-15 02:00N 43°29' E 009°16'3 6.6
2017-Sep-15 01:30N 43°32' E 009°13'3 6.5
2017-Sep-15 01:00N 43°35' E 009°11'3 6.4
2017-Sep-15 00:30N 43°38' E 009°09'3 6.8
2017-Sep-15 00:00N 43°41' E 009°07'3 6.7
2017-Sep-14 23:30N 43°44' E 009°05'3 6.7
2017-Sep-14 23:00N 43°47' E 009°03'3 6.6
2017-Sep-14 22:30N 43°50' E 009°01'3 6.7
2017-Sep-14 22:00N 43°53' E 008°59'3 6.2
2017-Sep-14 21:30N 43°56' E 008°57'2 3.8
2017-Sep-14 21:00N 43°58' E 008°56'2 3.8
2017-Sep-14 20:30N 43°60' E 008°56'2 3.6
2017-Sep-14 20:00N 44°01' E 008°55'2 4.2
2017-Sep-14 19:30N 44°03' E 008°54'2 4.8
2017-Sep-14 19:00N 44°06' E 008°53'2 3.2
2017-Sep-14 18:30N 44°07' E 008°53'2 3.5
2017-Sep-14 18:00N 44°09' E 008°53'1 3.0
2017-Sep-14 17:30N 44°10' E 008°53'1 2.6
2017-Sep-14 17:00N 44°12' E 008°54'1 2.2
2017-Sep-14 16:30N 44°13' E 008°54'1 2.2
2017-Sep-14 16:00N 44°14' E 008°54'1 2.1
2017-Sep-14 15:30N 44°15' E 008°55'1 2.0
2017-Sep-14 15:00N 44°15' E 008°56'1 1.9
2017-Sep-14 14:30N 44°16' E 008°56'1 2.6
2017-Sep-14 14:00N 44°17' E 008°57'1 2.8
2017-Sep-14 13:30N 44°19' E 008°58'2 3.8
2017-Sep-14 13:00N 44°20' E 008°58'3 6.6
2017-Sep-14 12:30N 44°24' E 008°56'3 5.2
2017-Sep-14 12:00N 44°24' E 008°52'0 0.1
2017-Sep-14 11:30N 44°24' E 008°52'0 0.0
2017-Sep-14 11:00N 44°24' E 008°52'0 0.0
2017-Sep-14 10:28N 44°24' E 008°52'0 0.0
2017-Sep-14 09:52N 44°24' E 008°52'0 0.0
2017-Sep-14 09:28N 44°24' E 008°52'0 0.0
2017-Sep-14 08:58N 44°24' E 008°52'0 0.0
2017-Sep-14 08:25N 44°24' E 008°52'0 0.0
2017-Sep-14 07:52N 44°24' E 008°52'0 0.0
2017-Sep-14 07:28N 44°24' E 008°52'0 0.0
2017-Sep-14 06:58N 44°24' E 008°52'0 0.0
2017-Sep-14 06:22N 44°24' E 008°52'0 0.0
2017-Sep-14 05:52N 44°24' E 008°52'0 0.0
2017-Sep-14 05:22N 44°24' E 008°52'0 0.0
2017-Sep-14 04:58N 44°24' E 008°52'0 0.0
2017-Sep-14 04:28N 44°24' E 008°52'0 0.0
2017-Sep-14 03:58N 44°24' E 008°52'0 0.0
2017-Sep-14 03:22N 44°24' E 008°52'0 0.0
2017-Sep-14 02:55N 44°24' E 008°52'0 0.0
2017-Sep-14 02:28N 44°24' E 008°52'0 0.0
2017-Sep-14 01:58N 44°24' E 008°52'0 0.0
2017-Sep-14 01:28N 44°24' E 008°52'0 0.0
2017-Sep-14 00:58N 44°24' E 008°52'0 0.0
2017-Sep-14 00:28N 44°24' E 008°52'0 0.0
2017-Sep-13 23:58N 44°24' E 008°52'0 0.0
2017-Sep-13 23:28N 44°24' E 008°52'0 0.0
2017-Sep-13 22:58N 44°24' E 008°52'0 0.0
2017-Sep-13 22:28N 44°24' E 008°52'0 0.0
2017-Sep-13 21:58N 44°24' E 008°52'0 0.0
2017-Sep-13 21:28N 44°24' E 008°52'0 0.0
2017-Sep-13 20:58N 44°24' E 008°52'0 0.0
2017-Sep-13 20:28N 44°24' E 008°52'0 0.0
2017-Sep-13 19:58N 44°24' E 008°52'0 0.0
2017-Sep-13 19:28N 44°24' E 008°52'0 0.0
2017-Sep-13 18:52N 44°24' E 008°52'0 0.0
2017-Sep-13 18:25N 44°24' E 008°52'0 0.0
2017-Sep-13 17:52N 44°24' E 008°52'0 0.0
2017-Sep-13 17:25N 44°24' E 008°52'0 0.0
2017-Sep-13 16:52N 44°24' E 008°52'0 0.0
2017-Sep-13 16:28N 44°24' E 008°52'0 0.0
2017-Sep-13 15:55N 44°24' E 008°52'0 0.0
2017-Sep-13 15:28N 44°24' E 008°52'0 0.0
2017-Sep-13 14:55N 44°24' E 008°52'0 0.0
2017-Sep-13 14:28N 44°24' E 008°52'0 0.0
2017-Sep-13 13:55N 44°24' E 008°52'0 0.0
2017-Sep-13 13:25N 44°24' E 008°52'0 0.0
2017-Sep-13 12:58N 44°24' E 008°52'0 0.0
2017-Sep-13 12:25N 44°24' E 008°52'0 0.0
2017-Sep-13 11:58N 44°24' E 008°52'0 0.0
2017-Sep-13 11:28N 44°24' E 008°52'0 0.0
2017-Sep-13 10:58N 44°24' E 008°52'0 0.0
2017-Sep-13 10:28N 44°24' E 008°52'0 0.0
2017-Sep-13 09:58N 44°24' E 008°52'0 0.0
2017-Sep-13 09:28N 44°24' E 008°52'0 0.0
2017-Sep-13 08:58N 44°24' E 008°52'0 0.0
2017-Sep-13 08:28N 44°24' E 008°52'0 0.0
2017-Sep-13 07:58N 44°24' E 008°52'0 0.0
2017-Sep-13 07:28N 44°24' E 008°52'0 0.0
2017-Sep-13 06:58N 44°24' E 008°52'0 0.0
2017-Sep-13 06:25N 44°24' E 008°52'0 0.0
2017-Sep-13 05:58N 44°24' E 008°52'0 0.0
2017-Sep-13 05:25N 44°24' E 008°52'0 0.0
2017-Sep-13 04:52N 44°24' E 008°52'0 0.0
2017-Sep-13 04:25N 44°24' E 008°52'0 0.0
2017-Sep-13 03:55N 44°24' E 008°52'0 0.0
2017-Sep-13 03:22N 44°24' E 008°52'0 0.0
2017-Sep-13 02:58N 44°24' E 008°52'0 0.0
2017-Sep-13 02:28N 44°24' E 008°52'0 0.0
2017-Sep-13 01:55N 44°24' E 008°52'0 0.0
2017-Sep-13 01:28N 44°24' E 008°52'0 0.0
2017-Sep-13 00:55N 44°24' E 008°52'0 0.0
2017-Sep-13 00:28N 44°24' E 008°52'0 0.0
2017-Sep-12 23:55N 44°24' E 008°52'0 0.0
2017-Sep-12 23:25N 44°24' E 008°52'0 0.0
2017-Sep-12 22:58N 44°24' E 008°52'0 0.0
2017-Sep-12 22:25N 44°24' E 008°52'0 0.0
2017-Sep-12 21:58N 44°24' E 008°52'0 0.0
2017-Sep-12 21:28N 44°24' E 008°52'0 0.0
2017-Sep-12 20:58N 44°24' E 008°52'0 0.0
2017-Sep-12 20:28N 44°24' E 008°52'0 0.0
2017-Sep-12 19:58N 44°24' E 008°52'0 0.0
2017-Sep-12 19:28N 44°24' E 008°52'0 0.0
2017-Sep-12 18:55N 44°24' E 008°52'0 0.0
2017-Sep-12 18:25N 44°24' E 008°52'0 0.0
2017-Sep-12 17:58N 44°24' E 008°52'0 0.0
2017-Sep-12 17:28N 44°24' E 008°52'0 0.0
2017-Sep-12 16:58N 44°24' E 008°52'0 0.0
2017-Sep-12 16:28N 44°24' E 008°52'0 0.0
2017-Sep-12 15:58N 44°24' E 008°52'0 0.0
2017-Sep-12 15:28N 44°24' E 008°52'0 0.0
2017-Sep-12 14:58N 44°24' E 008°52'0 0.0
2017-Sep-12 14:22N 44°24' E 008°52'0 0.0
2017-Sep-12 13:49N 44°24' E 008°52'0 0.0
2017-Sep-12 13:28N 44°24' E 008°52'0 0.0
2017-Sep-12 12:55N 44°24' E 008°52'0 0.0
2017-Sep-12 12:28N 44°24' E 008°52'0 0.0
2017-Sep-12 11:58N 44°24' E 008°52'0 0.0
2017-Sep-12 11:28N 44°24' E 008°52'0 0.0
2017-Sep-12 10:58N 44°24' E 008°52'0 0.0
2017-Sep-12 10:25N 44°24' E 008°52'0 0.0
2017-Sep-12 09:58N 44°24' E 008°52'0 0.0
2017-Sep-12 09:25N 44°24' E 008°52'0 0.0
2017-Sep-12 08:55N 44°24' E 008°52'0 0.0
2017-Sep-12 08:28N 44°24' E 008°52'0 0.0
2017-Sep-12 07:58N 44°24' E 008°52'0 0.0
2017-Sep-12 07:28N 44°24' E 008°52'0 0.0
2017-Sep-12 06:58N 44°24' E 008°52'0 0.0
2017-Sep-12 06:28N 44°24' E 008°52'0 0.0
2017-Sep-12 05:58N 44°24' E 008°52'0 0.0
2017-Sep-12 05:29N 44°24' E 008°52'0 0.0
2017-Sep-12 04:59N 44°24' E 008°52'0 0.0
2017-Sep-12 04:29N 44°24' E 008°52'0 0.0
2017-Sep-12 03:59N 44°24' E 008°52'0 0.0
2017-Sep-12 03:26N 44°24' E 008°52'0 0.0
2017-Sep-12 02:53N 44°24' E 008°52'0 0.0
2017-Sep-12 02:29N 44°24' E 008°52'0 0.0
2017-Sep-12 01:56N 44°24' E 008°52'0 0.0
2017-Sep-12 01:29N 44°24' E 008°52'0 0.0
2017-Sep-12 00:56N 44°24' E 008°52'0 0.0
2017-Sep-12 00:23N 44°24' E 008°52'0 0.0
2017-Sep-11 23:59N 44°24' E 008°52'0 0.0
2017-Sep-11 23:26N 44°24' E 008°52'0 0.0
2017-Sep-11 22:59N 44°24' E 008°52'0 0.0
2017-Sep-11 22:26N 44°24' E 008°52'0 0.0
2017-Sep-11 21:59N 44°24' E 008°52'0 0.0
2017-Sep-11 21:26N 44°24' E 008°52'0 0.0
2017-Sep-11 20:56N 44°24' E 008°52'0 0.0
2017-Sep-11 20:29N 44°24' E 008°52'0 0.0
2017-Sep-11 19:59N 44°24' E 008°52'0 0.0
2017-Sep-11 19:29N 44°24' E 008°52'0 0.0
2017-Sep-11 18:59N 44°24' E 008°52'0 0.0
2017-Sep-11 18:29N 44°24' E 008°52'0 0.0
2017-Sep-11 17:59N 44°24' E 008°52'0 0.0
2017-Sep-11 17:29N 44°24' E 008°52'0 0.0
2017-Sep-11 16:59N 44°24' E 008°52'0 0.0
2017-Sep-11 16:29N 44°24' E 008°52'0 0.0
2017-Sep-11 15:59N 44°24' E 008°52'0 0.0
2017-Sep-11 15:29N 44°24' E 008°52'0 0.0
2017-Sep-11 14:59N 44°24' E 008°52'0 0.0
2017-Sep-11 14:29N 44°24' E 008°52'0 0.0
2017-Sep-11 13:56N 44°24' E 008°52'0 0.0
2017-Sep-11 13:23N 44°24' E 008°52'0 0.0
2017-Sep-11 12:56N 44°24' E 008°52'0 0.0
2017-Sep-11 12:29N 44°24' E 008°52'0 0.0
2017-Sep-11 11:59N 44°24' E 008°52'0 0.0
2017-Sep-11 11:29N 44°24' E 008°52'0 0.0
2017-Sep-11 10:59N 44°24' E 008°52'0 0.0
2017-Sep-11 10:26N 44°24' E 008°52'0 0.0
2017-Sep-11 09:59N 44°24' E 008°52'0 0.0
2017-Sep-11 09:26N 44°24' E 008°52'0 0.0
2017-Sep-11 08:59N 44°24' E 008°52'0 0.0
2017-Sep-11 08:29N 44°24' E 008°52'0 0.0
2017-Sep-11 07:59N 44°24' E 008°52'0 0.0
2017-Sep-11 07:29N 44°24' E 008°52'0 0.0
2017-Sep-11 06:59N 44°24' E 008°52'0 0.0
2017-Sep-11 06:29N 44°24' E 008°52'0 0.0
2017-Sep-11 05:59N 44°24' E 008°52'0 0.0
2017-Sep-11 05:29N 44°24' E 008°52'0 0.0
2017-Sep-11 04:59N 44°24' E 008°52'0 0.0
2017-Sep-11 04:29N 44°24' E 008°52'0 0.0
2017-Sep-11 03:59N 44°24' E 008°52'0 0.0
2017-Sep-11 03:29N 44°24' E 008°52'0 0.0
2017-Sep-11 02:59N 44°24' E 008°52'0 0.0
2017-Sep-11 02:29N 44°24' E 008°52'0 0.0
2017-Sep-11 01:59N 44°24' E 008°52'0 0.0
2017-Sep-11 01:29N 44°24' E 008°52'0 0.0
2017-Sep-11 00:59N 44°24' E 008°52'0 0.0
2017-Sep-11 00:29N 44°24' E 008°52'0 0.0
2017-Sep-10 23:59N 44°24' E 008°52'0 0.0
2017-Sep-10 23:26N 44°24' E 008°52'0 0.0
2017-Sep-10 22:59N 44°24' E 008°52'0 0.0
2017-Sep-10 22:26N 44°24' E 008°52'0 0.0
2017-Sep-10 21:53N 44°24' E 008°52'0 0.0
2017-Sep-10 21:27N 44°24' E 008°52'0 0.0
2017-Sep-10 21:00N 44°24' E 008°52'1 2.8
2017-Sep-10 20:30N 44°23' E 008°53'1 1.4
2017-Sep-10 20:00N 44°22' E 008°53'1 1.6
2017-Sep-10 19:30N 44°22' E 008°53'1 2.5
2017-Sep-10 19:00N 44°20' E 008°53'3 5.9
2017-Sep-10 18:30N 44°18' E 008°51'510.0
2017-Sep-10 18:00N 44°13' E 008°49'0 0.5
2017-Sep-10 17:30N 44°13' E 008°49'1 1.5
2017-Sep-10 17:00N 44°14' E 008°49'1 1.5
2017-Sep-10 16:30N 44°14' E 008°49'1 1.6
2017-Sep-10 16:00N 44°15' E 008°50'1 1.5
2017-Sep-10 15:30N 44°16' E 008°50'1 1.2
2017-Sep-10 15:00N 44°16' E 008°50'1 1.1
2017-Sep-10 14:00N 44°17' E 008°50'2 3.7
2017-Sep-10 13:30N 44°16' E 008°49'2 4.9
2017-Sep-10 13:00N 44°14' E 008°47'0 0.8
2017-Sep-10 12:30N 44°15' E 008°47'1 1.2
2017-Sep-10 12:00N 44°15' E 008°47'1 1.2
2017-Sep-10 11:30N 44°15' E 008°48'1 1.2
2017-Sep-10 11:00N 44°16' E 008°48'1 1.1
2017-Sep-10 10:30N 44°16' E 008°49'0 0.8
2017-Sep-10 10:00N 44°16' E 008°49'0 0.8
2017-Sep-10 09:30N 44°17' E 008°50'0 0.9
2017-Sep-10 09:00N 44°17' E 008°50'0 0.9
2017-Sep-10 08:30N 44°17' E 008°50'0 0.6
2017-Sep-10 08:00N 44°18' E 008°50'0 0.5
2017-Sep-10 07:30N 44°18' E 008°50'1 1.0
2017-Sep-10 07:00N 44°17' E 008°50'0 0.6
2017-Sep-10 06:30N 44°17' E 008°50'2 4.9
2017-Sep-10 06:00N 44°18' E 008°47'0 0.3
2017-Sep-10 05:30N 44°18' E 008°47'0 0.6
2017-Sep-10 05:00N 44°17' E 008°47'0 0.5
2017-Sep-10 04:30N 44°17' E 008°47'2 3.2
2017-Sep-10 04:00N 44°19' E 008°48'1 1.3
2017-Sep-10 03:30N 44°19' E 008°49'1 1.1
2017-Sep-10 03:00N 44°19' E 008°49'0 0.8
2017-Sep-10 02:30N 44°18' E 008°49'0 0.8
2017-Sep-10 02:00N 44°18' E 008°49'1 2.3
2017-Sep-10 01:30N 44°19' E 008°50'1 1.5
2017-Sep-10 01:00N 44°19' E 008°51'1 1.0
2017-Sep-10 00:30N 44°19' E 008°51'1 1.0
2017-Sep-10 00:00N 44°18' E 008°50'0 0.8
2017-Sep-09 23:30N 44°19' E 008°50'0 0.7
2017-Sep-09 23:00N 44°18' E 008°50'1 1.2
2017-Sep-09 22:30N 44°18' E 008°50'1 1.2
2017-Sep-09 22:00N 44°17' E 008°50'1 1.1
2017-Sep-09 21:30N 44°18' E 008°50'1 2.3
2017-Sep-09 21:00N 44°18' E 008°52'2 3.0
2017-Sep-09 20:30N 44°20' E 008°53'0 0.8
2017-Sep-09 20:00N 44°20' E 008°53'1 1.5
2017-Sep-09 19:30N 44°19' E 008°53'1 2.2
2017-Sep-09 19:00N 44°18' E 008°54'2 3.7
2017-Sep-09 18:30N 44°16' E 008°55'2 4.7
2017-Sep-09 18:00N 44°14' E 008°56'1 2.3
2017-Sep-09 17:30N 44°13' E 008°55'0 1.0
2017-Sep-09 17:00N 44°13' E 008°54'  
Track history (hours):
 
Tides and Currents Weather Stations Pressure Air Temp Water Temp Dewpoint Dewpoint Depression Visibility Wind Speed Wind Dir Waves Ship Positions

M/V Koray

Last reported at 2017-Sep-19 16:48 UTC. Time now 2017-Sep-26 18:33 UTC.
Position N 37°31' E 025°43'.

Length 89 m; draft 6.3 m.

Type: Ship. MMSI: 229363000.

Date/timePositionNaut miles runAvg speedWind from/ knotsBaromVisibWave heightAir tempDewpointWater temp
2017-Sep-19 16:48N 37°31' E 025°43'2 8.2
2017-Sep-19 16:30N 37°29' E 025°41'4 8.4
2017-Sep-19 16:00N 37°25' E 025°39'4 8.0
2017-Sep-19 15:29N 37°22' E 025°36'3 7.2
2017-Sep-19 15:00N 37°20' E 025°32'4 8.3
2017-Sep-19 14:30N 37°20' E 025°27'4 8.5
2017-Sep-19 14:00N 37°19' E 025°22'4 8.7
2017-Sep-19 13:30N 37°18' E 025°16'4 8.9
2017-Sep-19 13:00N 37°17' E 025°11'4 8.8
2017-Sep-19 12:30N 37°16' E 025°06'4 8.5
2017-Sep-19 12:00N 37°15' E 025°00'4 8.3
2017-Sep-19 11:30N 37°14' E 024°55'4 8.1
2017-Sep-19 11:00N 37°12' E 024°51'26 8.2
2017-Sep-19 07:52N 36°58' E 024°23'3 8.3
2017-Sep-19 07:30N 36°57' E 024°20'5 8.2
2017-Sep-19 06:55N 36°54' E 024°15'3 7.9
2017-Sep-19 06:30N 36°53' E 024°11'4 7.9
2017-Sep-19 05:59N 36°50' E 024°07'4 8.1
2017-Sep-19 05:30N 36°48' E 024°03'4 8.5
2017-Sep-19 05:00N 36°46' E 023°58'4 8.5
2017-Sep-19 04:28N 36°44' E 023°54'4 8.7
2017-Sep-19 04:00N 36°41' E 023°50'17 8.6
2017-Sep-19 02:05N 36°33' E 023°32'98 8.5
2017-Sep-18 14:35N 36°34' E 021°30'1 9.5
2017-Sep-18 14:30N 36°34' E 021°29'181 9.0
2017-Sep-17 18:21N 37°27' E 017°52'5 8.6
2017-Sep-17 17:50N 37°28' E 017°46'3 8.7
2017-Sep-17 17:30N 37°29' E 017°43'15 8.7
2017-Sep-17 15:48N 37°33' E 017°25'3 8.6
2017-Sep-17 15:30N 37°34' E 017°22'4 8.6
2017-Sep-17 15:00N 37°35' E 017°17'25 8.7
2017-Sep-17 12:11N 37°42' E 016°47'2 8.9
2017-Sep-17 12:00N 37°43' E 016°45'5 9.0
2017-Sep-17 11:30N 37°44' E 016°40'32 9.0
2017-Sep-17 07:54N 37°52' E 016°00'4 8.5
2017-Sep-17 07:29N 37°52' E 015°56'4 7.9
2017-Sep-17 07:00N 37°52' E 015°51'3 5.4
2017-Sep-17 06:30N 37°50' E 015°53'2 3.9
2017-Sep-17 06:00N 37°49' E 015°52'5 9.1
2017-Sep-17 05:30N 37°50' E 015°47'5 9.5
2017-Sep-17 04:58N 37°51' E 015°40'5 9.9
2017-Sep-17 04:30N 37°55' E 015°37'5 9.5
2017-Sep-17 04:00N 37°59' E 015°34'5 9.2
2017-Sep-17 03:30N 38°04' E 015°34'5 9.1
2017-Sep-17 03:00N 38°08' E 015°35'4 7.9
2017-Sep-17 02:30N 38°12' E 015°36'4 7.2
2017-Sep-17 02:00N 38°15' E 015°38'4 7.4
2017-Sep-17 01:30N 38°18' E 015°40'5 9.0
2017-Sep-17 01:00N 38°22' E 015°37'4 9.1
2017-Sep-17 00:30N 38°25' E 015°33'5 9.4
2017-Sep-17 00:00N 38°29' E 015°29'5 9.6
2017-Sep-16 23:29N 38°33' E 015°25'5 9.8
2017-Sep-16 23:00N 38°37' E 015°21'5 9.6
2017-Sep-16 22:30N 38°40' E 015°18'5 9.1
2017-Sep-16 22:00N 38°42' E 015°12'4 9.1
2017-Sep-16 21:30N 38°43' E 015°07'5 9.1
2017-Sep-16 21:00N 38°45' E 015°01'5 8.9
2017-Sep-16 20:28N 38°46' E 014°55'4 8.7
2017-Sep-16 20:00N 38°47' E 014°50'5 8.8
2017-Sep-16 19:27N 38°50' E 014°45'4 8.9
2017-Sep-16 19:00N 38°53' E 014°41'6 8.9
2017-Sep-16 18:18N 38°57' E 014°36'3 9.0
2017-Sep-16 18:00N 38°59' E 014°33'36 9.2
2017-Sep-16 14:06N 39°24' E 013°59'2 9.2
2017-Sep-16 13:49N 39°25' E 013°57'4 9.1
2017-Sep-16 13:23N 39°28' E 013°53'3 9.1
2017-Sep-16 13:00N 39°30' E 013°50'89 9.4
2017-Sep-16 03:31N 40°32' E 012°25'1 9.5
2017-Sep-16 03:28N 40°32' E 012°25'199 9.3
2017-Sep-15 05:59N 43°05' E 009°34'3 7.1
2017-Sep-15 05:30N 43°08' E 009°33'4 7.4
2017-Sep-15 05:00N 43°12' E 009°31'4 7.4
2017-Sep-15 04:30N 43°15' E 009°30'4 7.2
2017-Sep-15 04:00N 43°19' E 009°28'4 7.2
2017-Sep-15 03:30N 43°22' E 009°25'4 7.6
2017-Sep-15 03:00N 43°24' E 009°21'4 7.1
2017-Sep-15 02:30N 43°27' E 009°18'3 6.6
2017-Sep-15 02:00N 43°29' E 009°16'3 6.6
2017-Sep-15 01:30N 43°32' E 009°13'3 6.5
2017-Sep-15 01:00N 43°35' E 009°11'3 6.4
2017-Sep-15 00:30N 43°38' E 009°09'3 6.8
2017-Sep-15 00:00N 43°41' E 009°07'3 6.7
2017-Sep-14 23:30N 43°44' E 009°05'3 6.7
2017-Sep-14 23:00N 43°47' E 009°03'3 6.6
2017-Sep-14 22:30N 43°50' E 009°01'3 6.7
2017-Sep-14 22:00N 43°53' E 008°59'3 6.2
2017-Sep-14 21:30N 43°56' E 008°57'2 3.8
2017-Sep-14 21:00N 43°58' E 008°56'2 3.8
2017-Sep-14 20:30N 43°60' E 008°56'2 3.6
2017-Sep-14 20:00N 44°01' E 008°55'2 4.2
2017-Sep-14 19:30N 44°03' E 008°54'2 4.8
2017-Sep-14 19:00N 44°06' E 008°53'2 3.2
2017-Sep-14 18:30N 44°07' E 008°53'2 3.5
2017-Sep-14 18:00N 44°09' E 008°53'1 3.0
2017-Sep-14 17:30N 44°10' E 008°53'1 2.6
2017-Sep-14 17:00N 44°12' E 008°54'1 2.2
2017-Sep-14 16:30N 44°13' E 008°54'1 2.2
2017-Sep-14 16:00N 44°14' E 008°54'1 2.1
2017-Sep-14 15:30N 44°15' E 008°55'1 2.0
2017-Sep-14 15:00N 44°15' E 008°56'1 1.9
2017-Sep-14 14:30N 44°16' E 008°56'1 2.6
2017-Sep-14 14:00N 44°17' E 008°57'1 2.8
2017-Sep-14 13:30N 44°19' E 008°58'2 3.8
2017-Sep-14 13:00N 44°20' E 008°58'3 6.6
2017-Sep-14 12:30N 44°24' E 008°56'3 5.2
2017-Sep-14 12:00N 44°24' E 008°52'0 0.1
2017-Sep-14 11:30N 44°24' E 008°52'0 0.0
2017-Sep-14 11:00N 44°24' E 008°52'0 0.0
2017-Sep-14 10:28N 44°24' E 008°52'0 0.0
2017-Sep-14 09:52N 44°24' E 008°52'0 0.0
2017-Sep-14 09:28N 44°24' E 008°52'0 0.0
2017-Sep-14 08:58N 44°24' E 008°52'0 0.0
2017-Sep-14 08:25N 44°24' E 008°52'0 0.0
2017-Sep-14 07:52N 44°24' E 008°52'0 0.0
2017-Sep-14 07:28N 44°24' E 008°52'0 0.0
2017-Sep-14 06:58N 44°24' E 008°52'0 0.0
2017-Sep-14 06:22N 44°24' E 008°52'0 0.0
2017-Sep-14 05:52N 44°24' E 008°52'0 0.0
2017-Sep-14 05:22N 44°24' E 008°52'0 0.0
2017-Sep-14 04:58N 44°24' E 008°52'0 0.0
2017-Sep-14 04:28N 44°24' E 008°52'0 0.0
2017-Sep-14 03:58N 44°24' E 008°52'0 0.0
2017-Sep-14 03:22N 44°24' E 008°52'0 0.0
2017-Sep-14 02:55N 44°24' E 008°52'0 0.0
2017-Sep-14 02:28N 44°24' E 008°52'0 0.0
2017-Sep-14 01:58N 44°24' E 008°52'0 0.0
2017-Sep-14 01:28N 44°24' E 008°52'0 0.0
2017-Sep-14 00:58N 44°24' E 008°52'0 0.0
2017-Sep-14 00:28N 44°24' E 008°52'0 0.0
2017-Sep-13 23:58N 44°24' E 008°52'0 0.0
2017-Sep-13 23:28N 44°24' E 008°52'0 0.0
2017-Sep-13 22:58N 44°24' E 008°52'0 0.0
2017-Sep-13 22:28N 44°24' E 008°52'0 0.0
2017-Sep-13 21:58N 44°24' E 008°52'0 0.0
2017-Sep-13 21:28N 44°24' E 008°52'0 0.0
2017-Sep-13 20:58N 44°24' E 008°52'0 0.0
2017-Sep-13 20:28N 44°24' E 008°52'0 0.0
2017-Sep-13 19:58N 44°24' E 008°52'0 0.0
2017-Sep-13 19:28N 44°24' E 008°52'0 0.0
2017-Sep-13 18:52N 44°24' E 008°52'0 0.0
2017-Sep-13 18:25N 44°24' E 008°52'0 0.0
2017-Sep-13 17:52N 44°24' E 008°52'0 0.0
2017-Sep-13 17:25N 44°24' E 008°52'0 0.0
2017-Sep-13 16:52N 44°24' E 008°52'0 0.0
2017-Sep-13 16:28N 44°24' E 008°52'0 0.0
2017-Sep-13 15:55N 44°24' E 008°52'0 0.0
2017-Sep-13 15:28N 44°24' E 008°52'0 0.0
2017-Sep-13 14:55N 44°24' E 008°52'0 0.0
2017-Sep-13 14:28N 44°24' E 008°52'0 0.0
2017-Sep-13 13:55N 44°24' E 008°52'0 0.0
2017-Sep-13 13:25N 44°24' E 008°52'0 0.0
2017-Sep-13 12:58N 44°24' E 008°52'0 0.0
2017-Sep-13 12:25N 44°24' E 008°52'0 0.0
2017-Sep-13 11:58N 44°24' E 008°52'0 0.0
2017-Sep-13 11:28N 44°24' E 008°52'0 0.0
2017-Sep-13 10:58N 44°24' E 008°52'0 0.0
2017-Sep-13 10:28N 44°24' E 008°52'0 0.0
2017-Sep-13 09:58N 44°24' E 008°52'0 0.0
2017-Sep-13 09:28N 44°24' E 008°52'0 0.0
2017-Sep-13 08:58N 44°24' E 008°52'0 0.0
2017-Sep-13 08:28N 44°24' E 008°52'0 0.0
2017-Sep-13 07:58N 44°24' E 008°52'0 0.0
2017-Sep-13 07:28N 44°24' E 008°52'0 0.0
2017-Sep-13 06:58N 44°24' E 008°52'0 0.0
2017-Sep-13 06:25N 44°24' E 008°52'0 0.0
2017-Sep-13 05:58N 44°24' E 008°52'0 0.0
2017-Sep-13 05:25N 44°24' E 008°52'0 0.0
2017-Sep-13 04:52N 44°24' E 008°52'0 0.0
2017-Sep-13 04:25N 44°24' E 008°52'0 0.0
2017-Sep-13 03:55N 44°24' E 008°52'0 0.0
2017-Sep-13 03:22N 44°24' E 008°52'0 0.0
2017-Sep-13 02:58N 44°24' E 008°52'0 0.0
2017-Sep-13 02:28N 44°24' E 008°52'0 0.0
2017-Sep-13 01:55N 44°24' E 008°52'0 0.0
2017-Sep-13 01:28N 44°24' E 008°52'0 0.0
2017-Sep-13 00:55N 44°24' E 008°52'0 0.0
2017-Sep-13 00:28N 44°24' E 008°52'0 0.0
2017-Sep-12 23:55N 44°24' E 008°52'0 0.0
2017-Sep-12 23:25N 44°24' E 008°52'0 0.0
2017-Sep-12 22:58N 44°24' E 008°52'0 0.0
2017-Sep-12 22:25N 44°24' E 008°52'0 0.0
2017-Sep-12 21:58N 44°24' E 008°52'0 0.0
2017-Sep-12 21:28N 44°24' E 008°52'0 0.0
2017-Sep-12 20:58N 44°24' E 008°52'0 0.0
2017-Sep-12 20:28N 44°24' E 008°52'0 0.0
2017-Sep-12 19:58N 44°24' E 008°52'0 0.0
2017-Sep-12 19:28N 44°24' E 008°52'0 0.0
2017-Sep-12 18:55N 44°24' E 008°52'0 0.0
2017-Sep-12 18:25N 44°24' E 008°52'0 0.0
2017-Sep-12 17:58N 44°24' E 008°52'0 0.0
2017-Sep-12 17:28N 44°24' E 008°52'0 0.0
2017-Sep-12 16:58N 44°24' E 008°52'0 0.0
2017-Sep-12 16:28N 44°24' E 008°52'0 0.0
2017-Sep-12 15:58N 44°24' E 008°52'0 0.0
2017-Sep-12 15:28N 44°24' E 008°52'0 0.0
2017-Sep-12 14:58N 44°24' E 008°52'0 0.0
2017-Sep-12 14:22N 44°24' E 008°52'0 0.0
2017-Sep-12 13:49N 44°24' E 008°52'0 0.0
2017-Sep-12 13:28N 44°24' E 008°52'0 0.0
2017-Sep-12 12:55N 44°24' E 008°52'0 0.0
2017-Sep-12 12:28N 44°24' E 008°52'0 0.0
2017-Sep-12 11:58N 44°24' E 008°52'0 0.0
2017-Sep-12 11:28N 44°24' E 008°52'0 0.0
2017-Sep-12 10:58N 44°24' E 008°52'0 0.0
2017-Sep-12 10:25N 44°24' E 008°52'0 0.0
2017-Sep-12 09:58N 44°24' E 008°52'0 0.0
2017-Sep-12 09:25N 44°24' E 008°52'0 0.0
2017-Sep-12 08:55N 44°24' E 008°52'0 0.0
2017-Sep-12 08:28N 44°24' E 008°52'0 0.0
2017-Sep-12 07:58N 44°24' E 008°52'0 0.0
2017-Sep-12 07:28N 44°24' E 008°52'0 0.0
2017-Sep-12 06:58N 44°24' E 008°52'0 0.0
2017-Sep-12 06:28N 44°24' E 008°52'0 0.0
2017-Sep-12 05:58N 44°24' E 008°52'0 0.0
2017-Sep-12 05:29N 44°24' E 008°52'0 0.0
2017-Sep-12 04:59N 44°24' E 008°52'0 0.0
2017-Sep-12 04:29N 44°24' E 008°52'0 0.0
2017-Sep-12 03:59N 44°24' E 008°52'0 0.0
2017-Sep-12 03:26N 44°24' E 008°52'0 0.0
2017-Sep-12 02:53N 44°24' E 008°52'0 0.0
2017-Sep-12 02:29N 44°24' E 008°52'0 0.0
2017-Sep-12 01:56N 44°24' E 008°52'0 0.0
2017-Sep-12 01:29N 44°24' E 008°52'0 0.0
2017-Sep-12 00:56N 44°24' E 008°52'0 0.0
2017-Sep-12 00:23N 44°24' E 008°52'0 0.0
2017-Sep-11 23:59N 44°24' E 008°52'0 0.0
2017-Sep-11 23:26N 44°24' E 008°52'0 0.0
2017-Sep-11 22:59N 44°24' E 008°52'0 0.0
2017-Sep-11 22:26N 44°24' E 008°52'0 0.0
2017-Sep-11 21:59N 44°24' E 008°52'0 0.0
2017-Sep-11 21:26N 44°24' E 008°52'0 0.0
2017-Sep-11 20:56N 44°24' E 008°52'0 0.0
2017-Sep-11 20:29N 44°24' E 008°52'0 0.0
2017-Sep-11 19:59N 44°24' E 008°52'0 0.0
2017-Sep-11 19:29N 44°24' E 008°52'0 0.0
2017-Sep-11 18:59N 44°24' E 008°52'0 0.0
2017-Sep-11 18:29N 44°24' E 008°52'0 0.0
2017-Sep-11 17:59N 44°24' E 008°52'0 0.0
2017-Sep-11 17:29N 44°24' E 008°52'0 0.0
2017-Sep-11 16:59N 44°24' E 008°52'0 0.0
2017-Sep-11 16:29N 44°24' E 008°52'0 0.0
2017-Sep-11 15:59N 44°24' E 008°52'0 0.0
2017-Sep-11 15:29N 44°24' E 008°52'0 0.0
2017-Sep-11 14:59N 44°24' E 008°52'0 0.0
2017-Sep-11 14:29N 44°24' E 008°52'0 0.0
2017-Sep-11 13:56N 44°24' E 008°52'0 0.0
2017-Sep-11 13:23N 44°24' E 008°52'0 0.0
2017-Sep-11 12:56N 44°24' E 008°52'0 0.0
2017-Sep-11 12:29N 44°24' E 008°52'0 0.0
2017-Sep-11 11:59N 44°24' E 008°52'0 0.0
2017-Sep-11 11:29N 44°24' E 008°52'0 0.0
2017-Sep-11 10:59N 44°24' E 008°52'0 0.0
2017-Sep-11 10:26N 44°24' E 008°52'0 0.0
2017-Sep-11 09:59N 44°24' E 008°52'0 0.0
2017-Sep-11 09:26N 44°24' E 008°52'0 0.0
2017-Sep-11 08:59N 44°24' E 008°52'0 0.0
2017-Sep-11 08:29N 44°24' E 008°52'0 0.0
2017-Sep-11 07:59N 44°24' E 008°52'0 0.0
2017-Sep-11 07:29N 44°24' E 008°52'0 0.0
2017-Sep-11 06:59N 44°24' E 008°52'0 0.0
2017-Sep-11 06:29N 44°24' E 008°52'0 0.0
2017-Sep-11 05:59N 44°24' E 008°52'0 0.0
2017-Sep-11 05:29N 44°24' E 008°52'0 0.0
2017-Sep-11 04:59N 44°24' E 008°52'0 0.0
2017-Sep-11 04:29N 44°24' E 008°52'0 0.0
2017-Sep-11 03:59N 44°24' E 008°52'0 0.0
2017-Sep-11 03:29N 44°24' E 008°52'0 0.0
2017-Sep-11 02:59N 44°24' E 008°52'0 0.0
2017-Sep-11 02:29N 44°24' E 008°52'0 0.0
2017-Sep-11 01:59N 44°24' E 008°52'0 0.0
2017-Sep-11 01:29N 44°24' E 008°52'0 0.0
2017-Sep-11 00:59N 44°24' E 008°52'0 0.0
2017-Sep-11 00:29N 44°24' E 008°52'0 0.0
2017-Sep-10 23:59N 44°24' E 008°52'0 0.0
2017-Sep-10 23:26N 44°24' E 008°52'0 0.0
2017-Sep-10 22:59N 44°24' E 008°52'0 0.0
2017-Sep-10 22:26N 44°24' E 008°52'0 0.0
2017-Sep-10 21:53N 44°24' E 008°52'0 0.0
2017-Sep-10 21:27N 44°24' E 008°52'0 0.0
2017-Sep-10 21:00N 44°24' E 008°52'1 2.8
2017-Sep-10 20:30N 44°23' E 008°53'1 1.4
2017-Sep-10 20:00N 44°22' E 008°53'1 1.6
2017-Sep-10 19:30N 44°22' E 008°53'1 2.5
2017-Sep-10 19:00N 44°20' E 008°53'3 5.9
2017-Sep-10 18:30N 44°18' E 008°51'510.0
2017-Sep-10 18:00N 44°13' E 008°49'0 0.5
2017-Sep-10 17:30N 44°13' E 008°49'1 1.5
2017-Sep-10 17:00N 44°14' E 008°49'1 1.5
2017-Sep-10 16:30N 44°14' E 008°49'1 1.6
2017-Sep-10 16:00N 44°15' E 008°50'1 1.5
2017-Sep-10 15:30N 44°16' E 008°50'1 1.2
2017-Sep-10 15:00N 44°16' E 008°50'1 1.1
2017-Sep-10 14:00N 44°17' E 008°50'2 3.7
2017-Sep-10 13:30N 44°16' E 008°49'2 4.9
2017-Sep-10 13:00N 44°14' E 008°47'0 0.8
2017-Sep-10 12:30N 44°15' E 008°47'1 1.2
2017-Sep-10 12:00N 44°15' E 008°47'1 1.2
2017-Sep-10 11:30N 44°15' E 008°48'1 1.2
2017-Sep-10 11:00N 44°16' E 008°48'1 1.1
2017-Sep-10 10:30N 44°16' E 008°49'0 0.8
2017-Sep-10 10:00N 44°16' E 008°49'0 0.8
2017-Sep-10 09:30N 44°17' E 008°50'0 0.9
2017-Sep-10 09:00N 44°17' E 008°50'0 0.9
2017-Sep-10 08:30N 44°17' E 008°50'0 0.6
2017-Sep-10 08:00N 44°18' E 008°50'0 0.5
2017-Sep-10 07:30N 44°18' E 008°50'1 1.0
2017-Sep-10 07:00N 44°17' E 008°50'0 0.6
2017-Sep-10 06:30N 44°17' E 008°50'2 4.9
2017-Sep-10 06:00N 44°18' E 008°47'0 0.3
2017-Sep-10 05:30N 44°18' E 008°47'0 0.6
2017-Sep-10 05:00N 44°17' E 008°47'0 0.5
2017-Sep-10 04:30N 44°17' E 008°47'2 3.2
2017-Sep-10 04:00N 44°19' E 008°48'1 1.3
2017-Sep-10 03:30N 44°19' E 008°49'1 1.1
2017-Sep-10 03:00N 44°19' E 008°49'0 0.8
2017-Sep-10 02:30N 44°18' E 008°49'0 0.8
2017-Sep-10 02:00N 44°18' E 008°49'1 2.3
2017-Sep-10 01:30N 44°19' E 008°50'1 1.5
2017-Sep-10 01:00N 44°19' E 008°51'1 1.0
2017-Sep-10 00:30N 44°19' E 008°51'1 1.0
2017-Sep-10 00:00N 44°18' E 008°50'0 0.8
2017-Sep-09 23:30N 44°19' E 008°50'0 0.7
2017-Sep-09 23:00N 44°18' E 008°50'1 1.2
2017-Sep-09 22:30N 44°18' E 008°50'1 1.2
2017-Sep-09 22:00N 44°17' E 008°50'1 1.1
2017-Sep-09 21:30N 44°18' E 008°50'1 2.3
2017-Sep-09 21:00N 44°18' E 008°52'2 3.0
2017-Sep-09 20:30N 44°20' E 008°53'0 0.8
2017-Sep-09 20:00N 44°20' E 008°53'1 1.5
2017-Sep-09 19:30N 44°19' E 008°53'1 2.2
2017-Sep-09 19:00N 44°18' E 008°54'2 3.7
2017-Sep-09 18:30N 44°16' E 008°55'2 4.7
2017-Sep-09 18:00N 44°14' E 008°56'1 2.3
2017-Sep-09 17:30N 44°13' E 008°55'0 1.0
2017-Sep-09 17:00N 44°13' E 008°54'  

Dump ship's entire track history